Date,TemperatureHighF,TemperatureAvgF,TemperatureLowF,DewpointHighF,DewpointAvgF,DewpointLowF,HumidityHigh,HumidityAvg,HumidityLow,PressureMaxIn,PressureMinIn,WindSpeedMaxMPH,WindSpeedAvgMPH,GustSpeedMaxMPH,PrecipitationSumIn
2013-10-3,84.3,80.2,70.4,76.4,74.5,68.9,95,83,75,30.07,29.98,6,4,14,0.00
2013-10-4,85.1,80.5,73.8,77.8,74.9,70.7,93,84,67,30.07,29.99,6,3,14,0.00
2013-10-5,84.8,79.9,74.0,78.0,75.1,72.7,98,86,71,30.04,29.94,12,4,16,0.00
2013-10-6,82.8,76.9,71.7,75.7,73.1,71.0,98,89,75,29.94,29.78,12,3,15,1.79
2013-10-7,81.9,69.4,61.6,71.2,61.9,55.0,99,79,46,29.95,29.79,13,3,15,0.00
2013-10-8,85.0,69.8,55.7,69.0,60.5,53.0,90,74,48,29.98,29.91,8,2,10,0.00
2013-10-9,80.8,71.4,64.6,69.0,66.0,63.0,94,83,65,30.09,29.98,11,3,15,0.00
2013-10-10,80.2,70.4,61.8,69.0,65.5,61.0,98,85,66,30.10,30.00,7,2,14,0.00
2013-10-11,83.8,73.5,64.0,71.0,67.1,64.0,99,82,58,30.06,29.96,5,1,11,0.00
2013-10-12,88.6,74.9,65.3,72.0,67.5,62.0,99,80,44,30.07,29.98,5,1,9,0.00
2013-10-13,86.7,75.0,65.2,68.0,63.7,58.0,98,71,39,30.14,30.04,12,2,14,0.00
2013-10-14,82.7,73.8,65.6,70.0,64.9,60.0,85,74,57,30.10,30.00,9,3,12,0.00
2013-10-15,78.1,70.5,62.6,68.0,64.8,61.0,95,83,68,30.06,29.96,8,3,12,0.00
2013-10-16,79.9,72.2,62.9,70.0,66.4,62.0,96,82,68,30.02,29.92,8,2,11,0.00
2013-10-17,83.1,77.4,70.1,77.0,71.8,69.0,97,83,70,29.96,29.87,5,1,9,0.11
2013-10-18,78.8,70.9,66.3,70.0,66.7,64.0,96,87,71,30.00,29.90,6,2,11,0.00
2013-10-19,74.6,68.6,64.9,67.0,64.4,58.0,95,86,73,29.98,29.89,8,2,14,0.01
2013-10-20,78.3,66.3,58.0,63.0,58.8,57.0,96,78,50,30.02,29.94,10,2,14,0.00
2013-10-21,73.1,66.5,62.3,65.0,60.7,56.0,91,81,72,30.04,29.95,5,2,10,0.00
2013-10-22,78.0,67.5,61.8,67.0,63.9,59.0,98,89,62,29.97,29.86,4,1,8,0.12
2013-10-23,75.2,63.7,54.5,58.0,49.8,41.0,94,64,33,30.10,29.92,11,2,15,0.00
2013-10-24,73.0,60.8,49.9,56.0,48.7,42.0,90,66,41,30.21,30.09,8,2,11,0.00
2013-10-25,70.4,58.9,49.4,55.0,45.0,36.0,94,63,33,30.34,30.17,13,3,19,0.00
2013-10-26,67.6,55.3,44.2,49.0,40.5,34.0,89,60,34,30.29,30.15,8,2,10,0.00
2013-10-27,72.6,60.7,47.3,58.0,50.8,43.0,92,72,46,30.17,30.08,7,2,10,0.00
2013-10-28,76.2,66.5,58.2,61.0,56.8,52.0,94,72,50,30.21,30.09,10,2,14,0.00
2013-10-29,77.4,66.5,57.1,68.0,60.9,56.0,96,83,56,30.26,30.17,8,2,12,0.00
2013-10-30,78.3,70.7,62.1,71.0,66.5,60.0,96,87,78,30.22,30.09,9,3,15,0.00
2013-10-31,81.7,77.2,73.9,74.0,71.6,68.0,88,83,74,30.08,29.88,14,5,19,0.00